createdAt,value
2017-04-15T00:00:04.401Z,31.01
2017-04-15T00:01:02.304Z,34.86
2017-04-15T00:02:01.047Z,32.61
2017-04-15T00:02:59.297Z,31.87
2017-04-15T00:03:58.590Z,30.57
2017-04-15T00:04:56.932Z,32.57
2017-04-15T00:05:55.429Z,32.61
2017-04-15T00:06:53.377Z,32.49
2017-04-15T00:07:51.308Z,33.20
2017-04-15T00:08:49.172Z,31.51
2017-04-15T00:09:47.053Z,32.27
2017-04-15T00:10:44.939Z,32.64
2017-04-15T00:11:43.108Z,30.44
2017-04-15T00:12:41.021Z,33.50
2017-04-15T00:13:39.536Z,32.97
2017-04-15T00:14:37.407Z,32.09
2017-04-15T00:15:35.553Z,31.21
2017-04-15T00:16:33.481Z,30.70
2017-04-15T00:17:31.467Z,30.14
2017-04-15T00:18:29.309Z,32.11
2017-04-15T00:19:27.290Z,32.31
2017-04-15T00:20:25.407Z,31.20
2017-04-15T00:21:23.428Z,32.79
2017-04-15T00:22:21.264Z,31.07
2017-04-15T00:23:19.251Z,29.57
2017-04-15T00:24:17.213Z,30.93
2017-04-15T00:25:15.144Z,31.66
2017-04-15T00:26:13.010Z,28.23
2017-04-15T00:27:10.876Z,32.56
2017-04-15T00:28:08.759Z,31.13
2017-04-15T00:29:06.685Z,31.50
2017-04-15T00:30:04.742Z,29.69
2017-04-15T00:31:02.651Z,30.90
2017-04-15T00:32:00.644Z,31.91
2017-04-15T00:32:58.765Z,29.30
2017-04-15T00:33:56.735Z,30.10
2017-04-15T00:34:54.619Z,30.31
2017-04-15T00:35:52.542Z,30.10
2017-04-15T00:36:50.433Z,31.07
2017-04-15T00:37:51.937Z,31.33
2017-04-15T00:38:50.065Z,27.59
2017-04-15T00:39:48.020Z,29.67
2017-04-15T00:40:45.908Z,29.86
2017-04-15T00:41:43.805Z,32.14
2017-04-15T00:42:42.353Z,31.87
2017-04-15T00:43:40.241Z,31.06
2017-04-15T00:44:38.161Z,31.60
2017-04-15T00:45:36.084Z,31.04
2017-04-15T00:46:34.011Z,32.39
2017-04-15T00:47:31.978Z,31.14
2017-04-15T00:48:34.159Z,30.94
2017-04-15T00:49:32.353Z,29.39
2017-04-15T00:50:30.599Z,33.31
2017-04-15T00:51:28.491Z,32.13
2017-04-15T00:52:26.351Z,29.84
2017-04-15T00:53:24.278Z,32.11
2017-04-15T00:54:22.185Z,29.86
2017-04-15T00:55:20.075Z,31.76
2017-04-15T00:56:18.077Z,29.59
2017-04-15T00:57:15.939Z,30.20
2017-04-15T00:58:13.860Z,31.83
2017-04-15T00:59:11.690Z,32.53
2017-04-15T01:00:09.716Z,31.69
2017-04-15T01:01:08.454Z,30.49
2017-04-15T01:02:07.190Z,30.84
2017-04-15T01:03:05.308Z,30.73
2017-04-15T01:04:04.411Z,32.99
2017-04-15T01:05:02.452Z,31.23
2017-04-15T01:06:00.347Z,30.10
2017-04-15T01:06:58.411Z,28.57
2017-04-15T01:07:56.364Z,30.33
2017-04-15T01:08:54.255Z,30.99
2017-04-15T01:09:52.284Z,29.53
2017-04-15T01:10:50.349Z,30.34
2017-04-15T01:11:48.421Z,30.13
2017-04-15T01:12:46.443Z,29.83
2017-04-15T01:13:44.404Z,30.47
2017-04-15T01:14:42.296Z,29.99
2017-04-15T01:15:40.203Z,31.09
2017-04-15T01:16:38.285Z,30.57
2017-04-15T01:17:36.324Z,32.76
2017-04-15T01:18:34.188Z,30.77
2017-04-15T01:19:32.605Z,30.87
2017-04-15T01:20:30.574Z,31.00
2017-04-15T01:21:28.701Z,31.04
2017-04-15T01:22:26.582Z,30.43
2017-04-15T01:23:24.492Z,30.99
2017-04-15T01:24:22.405Z,28.87
2017-04-15T01:25:20.288Z,28.47
2017-04-15T01:26:18.185Z,30.67
2017-04-15T01:27:16.239Z,28.17
2017-04-15T01:28:14.312Z,29.11
2017-04-15T01:29:12.436Z,28.96
2017-04-15T01:30:10.479Z,30.87
2017-04-15T01:31:08.371Z,29.21
2017-04-15T01:32:06.263Z,28.97
2017-04-15T01:33:04.127Z,28.57
2017-04-15T01:34:02.084Z,29.64
2017-04-15T01:34:59.994Z,28.57
2017-04-15T01:35:58.381Z,30.67
2017-04-15T01:36:56.875Z,30.19
2017-04-15T01:37:54.884Z,30.37
2017-04-15T01:38:52.809Z,29.49
2017-04-15T01:39:51.212Z,30.97
2017-04-15T01:40:49.225Z,29.54
2017-04-15T01:41:47.139Z,29.13
2017-04-15T01:42:45.041Z,29.57
2017-04-15T01:43:43.137Z,30.03
2017-04-15T01:44:41.038Z,28.00
2017-04-15T01:45:38.996Z,27.89
2017-04-15T01:46:37.420Z,28.70
2017-04-15T01:47:35.650Z,30.31
2017-04-15T01:48:33.512Z,30.40
2017-04-15T01:49:31.364Z,29.86
2017-04-15T01:50:29.197Z,29.61
2017-04-15T01:51:27.068Z,30.13
2017-04-15T01:52:24.869Z,30.27
2017-04-15T01:53:22.748Z,28.23
2017-04-15T01:54:20.627Z,29.21
2017-04-15T01:55:18.494Z,27.26
2017-04-15T01:56:16.363Z,28.74
2017-04-15T01:57:14.287Z,27.43
2017-04-15T01:58:12.145Z,28.04
2017-04-15T01:59:10.079Z,28.21
2017-04-15T02:00:07.982Z,28.86
2017-04-15T02:01:05.911Z,29.50
2017-04-15T02:02:03.835Z,27.80
2017-04-15T02:03:01.758Z,26.73
2017-04-15T02:03:59.597Z,27.14
2017-04-15T02:04:57.508Z,27.70
2017-04-15T02:05:55.298Z,29.51
2017-04-15T02:06:53.147Z,29.93
2017-04-15T02:07:51.095Z,26.54
2017-04-15T02:08:48.972Z,27.47
2017-04-15T02:09:46.819Z,29.03
2017-04-15T02:10:44.684Z,27.83
2017-04-15T02:11:42.539Z,26.86
2017-04-15T02:12:40.553Z,26.53
2017-04-15T02:13:38.409Z,27.63
2017-04-15T02:14:36.280Z,27.90
2017-04-15T02:15:34.152Z,26.81
2017-04-15T02:16:32.042Z,26.49
2017-04-15T02:17:29.944Z,26.96
2017-04-15T02:18:27.841Z,26.81
2017-04-15T02:19:25.750Z,27.41
2017-04-15T02:20:24.212Z,26.90
2017-04-15T02:21:22.056Z,26.31
2017-04-15T02:22:21.766Z,27.40
2017-04-15T02:23:20.367Z,26.79
2017-04-15T02:24:18.427Z,26.63
2017-04-15T02:25:16.476Z,27.50
2017-04-15T02:26:14.382Z,25.64
2017-04-15T02:27:12.224Z,26.19
2017-04-15T02:28:10.480Z,26.09
2017-04-15T02:29:08.316Z,25.87
2017-04-15T02:30:06.121Z,25.50
2017-04-15T02:31:03.996Z,27.99
2017-04-15T02:32:01.820Z,27.06
2017-04-15T02:32:59.673Z,26.84
2017-04-15T02:33:57.489Z,26.61
2017-04-15T02:34:55.420Z,24.69
2017-04-15T02:35:53.287Z,26.57
2017-04-15T02:36:51.143Z,25.29
2017-04-15T02:37:48.995Z,24.94
2017-04-15T02:38:46.783Z,24.20
2017-04-15T02:39:47.904Z,22.73
2017-04-15T02:40:45.771Z,24.43
2017-04-15T02:41:44.108Z,26.24
2017-04-15T02:42:41.983Z,24.67
2017-04-15T02:43:39.832Z,23.93
2017-04-15T02:44:39.393Z,24.40
2017-04-15T02:45:38.849Z,23.74
2017-04-15T02:46:37.258Z,22.89
2017-04-15T02:47:35.149Z,24.11
2017-04-15T02:48:33.040Z,24.43
2017-04-15T02:49:30.928Z,24.63
2017-04-15T02:50:28.825Z,23.57
2017-04-15T02:51:26.720Z,22.10
2017-04-15T02:52:24.577Z,22.94
2017-04-15T02:53:22.391Z,21.93
2017-04-15T02:54:20.248Z,22.31
2017-04-15T02:55:18.200Z,21.99
2017-04-15T02:56:16.041Z,23.89
2017-04-15T02:57:14.020Z,23.47
2017-04-15T02:58:11.857Z,23.83
2017-04-15T02:59:09.885Z,23.41
2017-04-15T03:00:07.916Z,22.23
2017-04-15T03:01:05.783Z,22.81
2017-04-15T03:02:03.704Z,23.79
2017-04-15T03:03:01.571Z,22.30
2017-04-15T03:03:59.425Z,21.89
2017-04-15T03:04:57.279Z,22.36
2017-04-15T03:05:55.185Z,23.36
2017-04-15T03:06:53.067Z,23.43
2017-04-15T03:07:50.913Z,21.81
2017-04-15T03:08:48.892Z,21.89
2017-04-15T03:09:46.744Z,22.56
2017-04-15T03:10:44.587Z,22.57
2017-04-15T03:11:42.448Z,22.29
2017-04-15T03:12:40.315Z,23.13
2017-04-15T03:13:38.225Z,23.23
2017-04-15T03:14:36.098Z,20.71
2017-04-15T03:15:34.031Z,22.69
2017-04-15T03:16:31.856Z,21.37
2017-04-15T03:17:29.752Z,21.63
2017-04-15T03:18:27.627Z,21.90
2017-04-15T03:19:25.521Z,20.70
2017-04-15T03:20:23.391Z,20.50
2017-04-15T03:21:21.404Z,20.96
2017-04-15T03:22:19.231Z,20.13
2017-04-15T03:23:17.050Z,21.26
2017-04-15T03:24:15.115Z,20.60
2017-04-15T03:25:12.948Z,21.00
2017-04-15T03:26:10.809Z,20.47
2017-04-15T03:27:08.676Z,19.61
2017-04-15T03:28:06.756Z,20.56
2017-04-15T03:29:04.685Z,20.16
2017-04-15T03:30:02.555Z,21.40
2017-04-15T03:31:00.423Z,20.83
2017-04-15T03:31:58.257Z,20.56
2017-04-15T03:32:56.227Z,20.60
2017-04-15T03:33:54.049Z,20.01
2017-04-15T03:34:51.922Z,20.54
2017-04-15T03:35:49.815Z,18.24
2017-04-15T03:36:47.644Z,19.91
2017-04-15T03:37:45.548Z,21.23
2017-04-15T03:38:43.368Z,19.83
2017-04-15T03:39:41.316Z,19.27
2017-04-15T03:40:39.159Z,19.91
2017-04-15T03:41:37.031Z,19.04
2017-04-15T03:42:34.908Z,19.77
2017-04-15T03:43:32.720Z,19.96
2017-04-15T03:44:30.661Z,19.81
2017-04-15T03:45:28.533Z,19.89
2017-04-15T03:46:26.387Z,18.46
2017-04-15T03:47:24.212Z,20.60
2017-04-15T03:48:22.220Z,20.31
2017-04-15T03:49:20.176Z,18.70
2017-04-15T03:50:18.031Z,18.73
2017-04-15T03:51:15.874Z,19.91
2017-04-15T03:52:13.871Z,18.54
2017-04-15T03:53:11.707Z,20.83
2017-04-15T03:54:09.545Z,20.30
2017-04-15T03:55:09.025Z,19.64
2017-04-15T03:56:06.891Z,19.81
2017-04-15T03:57:04.716Z,21.09
2017-04-15T03:58:02.537Z,19.24
2017-04-15T03:59:00.407Z,19.93
2017-04-15T03:59:58.328Z,18.36
2017-04-15T04:00:56.172Z,19.83
2017-04-15T04:01:54.000Z,20.33
2017-04-15T04:02:51.958Z,19.60
2017-04-15T04:03:49.811Z,18.66
2017-04-15T04:04:47.771Z,19.43
2017-04-15T04:05:45.655Z,17.79
2017-04-15T04:06:43.581Z,19.13
2017-04-15T04:07:41.416Z,18.24
2017-04-15T04:08:39.297Z,18.14
2017-04-15T04:09:37.223Z,19.31
2017-04-15T04:10:35.048Z,18.60
2017-04-15T04:11:33.000Z,19.14
2017-04-15T04:12:30.832Z,19.81
2017-04-15T04:13:28.680Z,19.17
2017-04-15T04:14:26.608Z,18.87
2017-04-15T04:15:24.447Z,19.69
2017-04-15T04:16:22.379Z,17.47
2017-04-15T04:17:20.196Z,17.09
2017-04-15T04:18:18.159Z,19.87
2017-04-15T04:19:16.033Z,19.84
2017-04-15T04:20:13.871Z,19.34
2017-04-15T04:21:11.834Z,18.50
2017-04-15T04:22:09.695Z,18.97
2017-04-15T04:23:07.618Z,18.49
2017-04-15T04:24:05.487Z,19.56
2017-04-15T04:25:03.456Z,17.99
2017-04-15T04:26:01.304Z,18.79
2017-04-15T04:26:59.174Z,18.16
2017-04-15T04:27:56.972Z,17.64
2017-04-15T04:28:54.835Z,17.31
2017-04-15T04:29:52.641Z,17.81
2017-04-15T04:30:50.576Z,18.29
2017-04-15T04:31:48.427Z,18.10
2017-04-15T04:32:46.314Z,16.37
2017-04-15T04:33:44.200Z,17.34
2017-04-15T04:34:42.037Z,17.37
2017-04-15T04:35:39.963Z,17.63
2017-04-15T04:36:37.792Z,17.03
2017-04-15T04:37:35.603Z,15.84
2017-04-15T04:38:33.752Z,16.03
2017-04-15T04:39:31.582Z,16.87
2017-04-15T04:40:29.392Z,16.84
2017-04-15T04:41:27.231Z,16.40
2017-04-15T04:42:25.300Z,16.89
2017-04-15T04:43:23.147Z,16.94
2017-04-15T04:44:25.508Z,15.57
2017-04-15T04:45:23.381Z,16.83
2017-04-15T04:46:21.273Z,16.27
2017-04-15T04:47:19.106Z,15.74
2017-04-15T04:48:16.951Z,16.69
2017-04-15T04:49:14.824Z,15.50
2017-04-15T04:50:12.619Z,16.41
2017-04-15T04:51:10.612Z,17.27
2017-04-15T04:52:08.480Z,16.73
2017-04-15T04:53:06.528Z,16.04
2017-04-15T04:54:04.397Z,17.57
2017-04-15T04:55:02.280Z,16.24
2017-04-15T04:56:00.136Z,16.66
2017-04-15T04:56:58.018Z,17.59
2017-04-15T04:57:55.865Z,17.26
2017-04-15T04:58:53.747Z,16.43
2017-04-15T04:59:51.656Z,17.20
2017-04-15T05:00:49.528Z,15.73
2017-04-15T05:01:47.339Z,16.07
2017-04-15T05:02:45.336Z,16.27
2017-04-15T05:03:43.212Z,15.01
2017-04-15T05:04:41.084Z,17.31
2017-04-15T05:05:38.984Z,17.04
2017-04-15T05:06:36.893Z,17.19
2017-04-15T05:07:34.703Z,17.93
2017-04-15T05:08:32.577Z,16.37
2017-04-15T05:09:30.438Z,17.27
2017-04-15T05:10:28.296Z,17.69
2017-04-15T05:11:26.227Z,18.24
2017-04-15T05:12:24.036Z,17.76
2017-04-15T05:13:21.999Z,17.53
2017-04-15T05:14:19.910Z,18.47
2017-04-15T05:15:17.790Z,19.24
2017-04-15T05:16:15.668Z,19.46
2017-04-15T05:17:13.557Z,19.60
2017-04-15T05:18:11.422Z,22.39
2017-04-15T05:19:09.289Z,20.50
2017-04-15T05:20:07.337Z,21.76
2017-04-15T05:21:05.208Z,20.51
2017-04-15T05:22:03.069Z,21.61
2017-04-15T05:23:00.896Z,22.16
2017-04-15T05:23:58.759Z,22.50
2017-04-15T05:24:56.615Z,21.94
2017-04-15T05:25:54.508Z,22.09
2017-04-15T05:26:52.595Z,22.31
2017-04-15T05:27:50.433Z,22.53
2017-04-15T05:28:48.300Z,22.14
2017-04-15T05:29:46.153Z,22.40
2017-04-15T05:30:44.039Z,22.34
2017-04-15T05:31:41.904Z,23.80
2017-04-15T05:32:39.813Z,21.81
2017-04-15T05:33:37.702Z,23.17
2017-04-15T05:34:35.611Z,24.53
2017-04-15T05:35:33.460Z,23.43
2017-04-15T05:36:31.363Z,22.61
2017-04-15T05:37:29.192Z,23.79
2017-04-15T05:38:27.112Z,25.20
2017-04-15T05:39:25.014Z,25.54
2017-04-15T05:40:22.868Z,25.30
2017-04-15T05:41:20.727Z,24.03
2017-04-15T05:42:18.680Z,24.84
2017-04-15T05:43:16.578Z,26.00
2017-04-15T05:44:14.480Z,24.26
2017-04-15T05:45:12.346Z,24.06
2017-04-15T05:46:10.200Z,24.91
2017-04-15T05:47:08.085Z,25.67
2017-04-15T05:48:05.947Z,25.61
2017-04-15T05:49:03.788Z,22.74
2017-04-15T05:50:01.633Z,23.50
2017-04-15T05:50:59.499Z,25.90
2017-04-15T05:51:57.411Z,23.63
2017-04-15T05:52:55.278Z,24.26
2017-04-15T05:53:53.172Z,26.13
2017-04-15T05:54:51.035Z,24.20
2017-04-15T05:55:48.902Z,24.27
2017-04-15T05:56:46.766Z,24.64
2017-04-15T05:57:44.674Z,24.53
2017-04-15T05:58:42.510Z,24.03
2017-04-15T05:59:40.336Z,24.46
2017-04-15T06:00:38.203Z,25.50
2017-04-15T06:01:36.067Z,22.64
2017-04-15T06:02:34.034Z,22.71
2017-04-15T06:03:31.944Z,23.11
2017-04-15T06:04:29.823Z,22.71
2017-04-15T06:05:27.692Z,22.30
2017-04-15T06:06:25.535Z,23.60
2017-04-15T06:07:23.746Z,23.21
2017-04-15T06:08:21.627Z,24.99
2017-04-15T06:09:20.100Z,24.54
2017-04-15T06:10:17.960Z,21.64
2017-04-15T06:11:15.821Z,23.04
2017-04-15T06:12:13.721Z,24.77
2017-04-15T06:13:11.607Z,21.93
2017-04-15T06:14:09.504Z,22.26
2017-04-15T06:15:07.399Z,22.21
2017-04-15T06:16:05.297Z,22.69
2017-04-15T06:17:03.156Z,24.61
2017-04-15T06:18:00.981Z,24.23
2017-04-15T06:18:58.829Z,20.74
2017-04-15T06:19:56.658Z,24.01
2017-04-15T06:20:54.533Z,22.50
2017-04-15T06:21:52.400Z,22.19
2017-04-15T06:22:50.255Z,22.33
2017-04-15T06:23:48.128Z,22.63
2017-04-15T06:24:45.951Z,21.81
2017-04-15T06:25:43.853Z,24.20
2017-04-15T06:26:41.735Z,22.77
2017-04-15T06:27:39.570Z,23.41
2017-04-15T06:28:37.409Z,25.16
2017-04-15T06:29:35.325Z,24.53
2017-04-15T06:30:33.191Z,22.71
2017-04-15T06:31:31.075Z,23.71
2017-04-15T06:32:28.957Z,24.16
2017-04-15T06:33:26.847Z,24.19
2017-04-15T06:34:24.700Z,22.40
2017-04-15T06:35:22.588Z,24.34
2017-04-15T06:36:20.505Z,25.20
2017-04-15T06:37:18.314Z,23.87
2017-04-15T06:38:16.191Z,23.96
2017-04-15T06:39:14.084Z,24.63
2017-04-15T06:40:11.950Z,23.94
2017-04-15T06:41:09.863Z,26.13
2017-04-15T06:42:07.744Z,23.37
2017-04-15T06:43:05.568Z,23.63
2017-04-15T06:44:03.407Z,24.31
2017-04-15T06:45:01.273Z,24.20
2017-04-15T06:45:59.149Z,25.26
2017-04-15T06:46:57.003Z,26.01
2017-04-15T06:47:54.873Z,25.46
2017-04-15T06:48:52.676Z,24.59
2017-04-15T06:49:50.529Z,24.11
2017-04-15T06:50:48.425Z,25.46
2017-04-15T06:51:46.296Z,25.19
2017-04-15T06:52:44.164Z,25.49
2017-04-15T06:53:41.992Z,24.76
2017-04-15T06:54:39.862Z,24.79
2017-04-15T06:55:37.754Z,26.71
2017-04-15T06:56:35.600Z,27.47
2017-04-15T06:57:33.453Z,28.01
2017-04-15T06:58:31.386Z,25.91
2017-04-15T06:59:29.260Z,27.59
2017-04-15T07:00:27.119Z,26.29
2017-04-15T07:01:25.055Z,26.01
2017-04-15T07:02:23.097Z,25.84
2017-04-15T07:03:20.931Z,27.99
2017-04-15T07:04:18.804Z,26.13
2017-04-15T07:05:16.701Z,28.91
2017-04-15T07:06:14.579Z,25.89
2017-04-15T07:07:12.763Z,27.61
2017-04-15T07:08:10.647Z,29.19
2017-04-15T07:09:08.543Z,29.89
2017-04-15T07:10:06.412Z,28.54
2017-04-15T07:11:04.305Z,29.03
2017-04-15T07:12:02.148Z,26.57
2017-04-15T07:13:00.011Z,27.94
2017-04-15T07:13:57.880Z,28.33
2017-04-15T07:14:55.735Z,27.19
2017-04-15T07:15:53.585Z,29.30
2017-04-15T07:16:51.432Z,27.07
2017-04-15T07:17:49.280Z,27.76
2017-04-15T07:18:47.241Z,27.80
2017-04-15T07:19:45.184Z,26.74
2017-04-15T07:20:43.144Z,25.40
2017-04-15T07:21:41.059Z,29.26
2017-04-15T07:22:38.994Z,28.00
2017-04-15T07:23:36.953Z,27.79
2017-04-15T07:24:34.813Z,26.37
2017-04-15T07:25:32.675Z,30.44
2017-04-15T07:26:30.527Z,29.39
2017-04-15T07:27:28.461Z,28.29
2017-04-15T07:28:26.346Z,26.50
2017-04-15T07:29:24.224Z,28.27
2017-04-15T07:30:22.137Z,29.06
2017-04-15T07:31:20.016Z,28.54
2017-04-15T07:32:17.908Z,29.73
2017-04-15T07:33:15.824Z,28.23
2017-04-15T07:34:13.719Z,29.84
2017-04-15T07:35:11.616Z,28.96
2017-04-15T07:36:09.508Z,28.71
2017-04-15T07:37:07.496Z,27.89
2017-04-15T07:38:05.463Z,29.67
2017-04-15T07:39:03.547Z,29.00
2017-04-15T07:40:01.463Z,27.39
2017-04-15T07:40:59.385Z,29.03
2017-04-15T07:41:57.306Z,29.24
2017-04-15T07:42:55.205Z,26.93
2017-04-15T07:43:53.068Z,27.60
2017-04-15T07:44:50.948Z,26.31
2017-04-15T07:45:48.872Z,27.10
2017-04-15T07:46:46.735Z,27.50
2017-04-15T07:47:44.712Z,27.20
2017-04-15T07:48:42.609Z,28.43
2017-04-15T07:49:41.247Z,29.30
2017-04-15T07:50:39.081Z,27.57
2017-04-15T07:51:36.977Z,28.70
2017-04-15T07:52:34.906Z,30.74
2017-04-15T07:53:32.868Z,27.23
2017-04-15T07:54:30.940Z,28.94
2017-04-15T07:55:28.992Z,29.27
2017-04-15T07:56:26.929Z,29.24
2017-04-15T07:57:24.827Z,28.76
2017-04-15T07:58:22.659Z,31.76
2017-04-15T07:59:20.558Z,27.77
2017-04-15T08:00:18.457Z,29.33
2017-04-15T08:01:17.214Z,31.44
2017-04-15T08:02:15.152Z,30.63
2017-04-15T08:03:13.053Z,30.60
2017-04-15T08:04:10.999Z,30.60
2017-04-15T08:05:08.918Z,34.00
2017-04-15T08:06:06.821Z,32.01
2017-04-15T08:07:04.761Z,32.89
2017-04-15T08:08:02.697Z,35.26
2017-04-15T08:09:01.659Z,35.13
2017-04-15T08:09:59.521Z,36.20
2017-04-15T08:10:57.405Z,35.07
2017-04-15T08:11:55.292Z,32.77
2017-04-15T08:12:53.161Z,37.34
2017-04-15T08:13:51.087Z,36.64
2017-04-15T08:14:48.960Z,35.66
2017-04-15T08:15:46.831Z,35.63
2017-04-15T08:16:44.725Z,36.51
2017-04-15T08:17:42.623Z,33.84
2017-04-15T08:18:40.567Z,36.47
2017-04-15T08:19:38.616Z,38.70
2017-04-15T08:20:36.469Z,37.70
2017-04-15T08:21:35.532Z,38.26
2017-04-15T08:22:33.465Z,37.21
2017-04-15T08:23:31.341Z,38.56
2017-04-15T08:24:29.305Z,37.59
2017-04-15T08:25:27.263Z,37.07
2017-04-15T08:26:25.328Z,39.91
2017-04-15T08:27:23.220Z,38.49
2017-04-15T08:28:21.119Z,37.16
2017-04-15T08:29:19.044Z,37.03
2017-04-15T08:30:16.943Z,38.93
2017-04-15T08:31:14.800Z,41.89
2017-04-15T08:32:12.681Z,40.59
2017-04-15T08:33:10.697Z,43.03
2017-04-15T08:34:08.612Z,42.63
2017-04-15T08:35:06.532Z,39.93
2017-04-15T08:36:04.476Z,43.29
2017-04-15T08:37:02.383Z,42.17
2017-04-15T08:38:01.023Z,42.73
2017-04-15T08:38:58.931Z,43.04
2017-04-15T08:39:56.809Z,42.27
2017-04-15T08:40:54.810Z,42.19
2017-04-15T08:41:52.793Z,42.59
2017-04-15T08:42:50.880Z,44.09
2017-04-15T08:43:48.788Z,43.73
2017-04-15T08:44:46.635Z,44.23
2017-04-15T08:45:44.512Z,43.94
2017-04-15T08:46:42.367Z,42.03
2017-04-15T08:47:40.288Z,41.04
2017-04-15T08:48:38.126Z,45.99
2017-04-15T08:49:36.062Z,44.36
2017-04-15T08:50:33.948Z,44.56
2017-04-15T08:51:32.309Z,44.21
2017-04-15T08:52:30.373Z,47.04
2017-04-15T08:53:28.288Z,43.87
2017-04-15T08:54:26.184Z,44.56
2017-04-15T08:55:24.047Z,44.20
2017-04-15T08:56:22.252Z,40.64
2017-04-15T08:57:20.441Z,45.16
2017-04-15T08:58:18.348Z,42.40
2017-04-15T08:59:16.279Z,43.74
2017-04-15T09:00:14.208Z,42.31
2017-04-15T09:01:12.083Z,41.20
2017-04-15T09:02:10.024Z,40.00
2017-04-15T09:03:07.884Z,40.00
2017-04-15T09:04:05.788Z,38.11
2017-04-15T09:05:03.660Z,37.94
2017-04-15T09:06:01.539Z,37.81
2017-04-15T09:06:59.446Z,40.40
2017-04-15T09:07:57.227Z,43.39
2017-04-15T09:08:55.116Z,41.60
2017-04-15T09:09:54.092Z,37.41
2017-04-15T09:10:51.996Z,40.74
2017-04-15T09:11:49.854Z,36.66
2017-04-15T09:12:47.781Z,38.61
2017-04-15T09:13:45.681Z,38.71
2017-04-15T09:14:43.631Z,38.64
2017-04-15T09:15:41.539Z,40.00
2017-04-15T09:16:39.424Z,41.09
2017-04-15T09:17:37.315Z,39.30
2017-04-15T09:18:35.171Z,41.60
2017-04-15T09:19:33.087Z,39.14
2017-04-15T09:20:30.949Z,39.97
2017-04-15T09:21:28.878Z,41.33
2017-04-15T09:22:26.801Z,39.93
2017-04-15T09:23:24.665Z,40.30
2017-04-15T09:24:22.530Z,40.76
2017-04-15T09:25:20.380Z,42.20
2017-04-15T09:26:18.252Z,42.54
2017-04-15T09:27:16.119Z,42.90
2017-04-15T09:28:14.005Z,46.09
2017-04-15T09:29:11.871Z,43.94
2017-04-15T09:30:09.719Z,43.87
2017-04-15T09:31:07.667Z,49.54
2017-04-15T09:32:05.500Z,41.10
2017-04-15T09:33:03.432Z,42.56
2017-04-15T09:34:01.328Z,44.37
2017-04-15T09:34:59.201Z,44.13
2017-04-15T09:35:57.144Z,45.84
2017-04-15T09:36:55.013Z,44.14
2017-04-15T09:37:52.855Z,42.11
2017-04-15T09:38:50.704Z,44.29
2017-04-15T09:39:48.541Z,44.17
2017-04-15T09:40:46.391Z,45.44
2017-04-15T09:41:44.237Z,42.10
2017-04-15T09:42:42.112Z,44.59
2017-04-15T09:43:39.986Z,44.21
2017-04-15T09:44:37.864Z,45.21
2017-04-15T09:45:35.690Z,41.59
2017-04-15T09:46:33.635Z,43.50
2017-04-15T09:47:31.966Z,42.56
2017-04-15T09:48:29.809Z,41.61
2017-04-15T09:49:27.679Z,44.24
2017-04-15T09:50:25.591Z,43.80
2017-04-15T09:51:23.424Z,43.71
2017-04-15T09:52:21.279Z,44.63
2017-04-15T09:53:19.104Z,43.97
2017-04-15T09:54:17.051Z,43.17
2017-04-15T09:55:14.888Z,43.93
2017-04-15T09:56:12.728Z,45.00
2017-04-15T09:57:10.608Z,42.51
2017-04-15T09:58:10.391Z,44.44
2017-04-15T09:59:08.205Z,44.83
2017-04-15T10:00:06.095Z,43.81
2017-04-15T10:01:04.219Z,45.20
2017-04-15T10:02:02.068Z,41.83
2017-04-15T10:02:59.978Z,45.49
2017-04-15T10:03:57.819Z,45.16
2017-04-15T10:04:55.708Z,39.00
2017-04-15T10:05:53.585Z,41.24
2017-04-15T10:06:51.400Z,39.67
2017-04-15T10:07:49.281Z,44.16
2017-04-15T10:08:47.115Z,41.04
2017-04-15T10:09:44.981Z,41.20
2017-04-15T10:10:42.928Z,42.77
2017-04-15T10:11:40.830Z,41.51
2017-04-15T10:12:39.323Z,42.60
2017-04-15T10:13:37.204Z,41.21
2017-04-15T10:14:35.083Z,42.59
2017-04-15T10:15:32.979Z,42.54
2017-04-15T10:16:30.850Z,41.21
2017-04-15T10:17:28.705Z,39.43
2017-04-15T10:18:26.549Z,38.59
2017-04-15T10:19:24.400Z,38.09
2017-04-15T10:20:22.291Z,39.14
2017-04-15T10:21:20.114Z,38.24
2017-04-15T10:22:17.996Z,36.93
2017-04-15T10:23:15.896Z,38.76
2017-04-15T10:24:13.817Z,35.03
2017-04-15T10:25:11.699Z,36.04
2017-04-15T10:26:09.661Z,35.47
2017-04-15T10:27:07.544Z,36.46
2017-04-15T10:28:05.427Z,37.04
2017-04-15T10:29:03.384Z,35.86
2017-04-15T10:30:01.306Z,35.34
2017-04-15T10:30:59.188Z,36.37
2017-04-15T10:31:57.079Z,33.76
2017-04-15T10:32:54.964Z,33.10
2017-04-15T10:33:52.821Z,35.44
2017-04-15T10:34:50.711Z,31.51
2017-04-15T10:35:48.579Z,28.93
2017-04-15T10:36:46.530Z,11.61
2017-04-15T10:37:44.492Z,13.96
2017-04-15T10:38:42.351Z,14.04
2017-04-15T10:39:40.275Z,14.83
2017-04-15T10:40:38.222Z,13.59
2017-04-15T10:41:36.232Z,13.89
2017-04-15T10:42:34.318Z,13.14
2017-04-15T10:43:32.283Z,11.37
2017-04-15T10:44:30.192Z,11.30
2017-04-15T10:45:28.200Z,10.29
2017-04-15T10:46:26.616Z,9.94
2017-04-15T10:47:24.699Z,11.69
2017-04-15T10:48:22.938Z,9.54
2017-04-15T10:49:21.249Z,10.19
2017-04-15T10:50:19.189Z,10.30
2017-04-15T10:51:16.985Z,9.77
2017-04-15T10:52:14.904Z,9.27
2017-04-15T10:53:12.817Z,10.33
2017-04-15T10:54:10.687Z,9.83
2017-04-15T10:55:08.609Z,8.26
2017-04-15T10:56:06.499Z,10.20
2017-04-15T10:57:04.452Z,9.97
2017-04-15T10:58:02.380Z,10.31
2017-04-15T10:59:00.571Z,10.13
2017-04-15T10:59:58.493Z,10.27
2017-04-15T11:00:56.570Z,10.64
2017-04-15T11:01:54.639Z,11.93
2017-04-15T11:02:52.625Z,11.21
2017-04-15T11:03:50.743Z,11.11
2017-04-15T11:04:48.741Z,11.59
2017-04-15T11:05:48.076Z,11.84
2017-04-15T11:06:45.961Z,12.93
2017-04-15T11:07:43.924Z,13.06
2017-04-15T11:08:41.872Z,10.69
2017-04-15T11:09:39.928Z,13.01
2017-04-15T11:10:38.049Z,14.83
2017-04-15T11:11:36.080Z,12.54
2017-04-15T11:12:34.552Z,13.24
2017-04-15T11:13:32.672Z,13.71
2017-04-15T11:14:30.728Z,14.19
2017-04-15T11:15:28.632Z,13.40
2017-04-15T11:16:26.562Z,12.77
2017-04-15T11:17:24.633Z,12.84
2017-04-15T11:18:22.583Z,10.87
2017-04-15T11:19:20.463Z,11.61
2017-04-15T11:20:18.371Z,13.21
2017-04-15T11:21:16.282Z,11.31
2017-04-15T11:22:14.188Z,11.07
2017-04-15T11:23:12.036Z,11.86
2017-04-15T11:24:09.952Z,11.53
2017-04-15T11:25:07.812Z,12.33
2017-04-15T11:26:05.693Z,12.23
2017-04-15T11:27:03.623Z,12.00
2017-04-15T11:28:01.501Z,12.99
2017-04-15T11:28:59.353Z,11.93
2017-04-15T11:29:57.192Z,14.06
2017-04-15T11:30:55.043Z,14.01
2017-04-15T11:31:53.002Z,12.91
2017-04-15T11:32:51.385Z,13.17
2017-04-15T11:33:49.257Z,12.77
2017-04-15T11:34:47.252Z,11.89
2017-04-15T11:35:45.147Z,12.39
2017-04-15T11:36:43.048Z,13.06
2017-04-15T11:37:40.935Z,13.20
2017-04-15T11:38:38.740Z,14.44
2017-04-15T11:39:36.684Z,14.31
2017-04-15T11:40:34.540Z,12.26
2017-04-15T11:41:32.468Z,12.76
2017-04-15T11:42:30.343Z,13.67
2017-04-15T11:43:28.216Z,13.31
2017-04-15T11:44:26.109Z,12.76
2017-04-15T11:45:23.962Z,12.56
2017-04-15T11:46:21.941Z,12.77
2017-04-15T11:47:19.776Z,12.63
2017-04-15T11:48:17.692Z,12.67
2017-04-15T11:49:15.560Z,14.10
2017-04-15T11:50:13.367Z,13.26
2017-04-15T11:51:11.377Z,13.36
2017-04-15T11:52:09.208Z,11.96
2017-04-15T11:53:07.165Z,13.24
2017-04-15T11:54:04.997Z,14.43
2017-04-15T11:55:03.032Z,14.00
2017-04-15T11:56:07.707Z,11.96
2017-04-15T11:57:05.576Z,11.74
2017-04-15T11:58:03.487Z,10.89
2017-04-15T11:59:01.524Z,12.04
2017-04-15T11:59:59.351Z,10.10
2017-04-15T12:00:57.342Z,9.16
2017-04-15T12:01:55.236Z,9.10
2017-04-15T12:02:53.156Z,6.51
2017-04-15T12:03:51.050Z,8.43
2017-04-15T12:04:48.918Z,7.77
2017-04-15T12:05:46.756Z,7.93
2017-04-15T12:06:44.648Z,7.69
2017-04-15T12:07:42.561Z,7.23
2017-04-15T12:08:40.388Z,5.70
2017-04-15T12:09:38.392Z,6.40
2017-04-15T12:10:36.332Z,6.71
2017-04-15T12:11:34.193Z,6.47
2017-04-15T12:12:32.203Z,6.36
2017-04-15T12:13:30.150Z,5.19
2017-04-15T12:14:28.019Z,5.61
2017-04-15T12:15:25.855Z,4.99
2017-04-15T12:16:23.692Z,3.91
2017-04-15T12:17:21.565Z,4.36
2017-04-15T12:18:19.389Z,4.31
2017-04-15T12:19:17.245Z,4.29
2017-04-15T12:20:15.125Z,4.36
2017-04-15T12:21:12.963Z,4.71
2017-04-15T12:22:10.792Z,4.27
2017-04-15T12:23:08.748Z,4.51
2017-04-15T12:24:06.562Z,4.26
2017-04-15T12:25:04.438Z,4.74
2017-04-15T12:26:02.366Z,3.56
2017-04-15T12:27:00.316Z,3.13